| time (UTC) | temp F | wind direction | speed knots | gust knots | rain 1hr in | rain 24hr in | rain mn in | humidity % | barometer mb |
| 20260906111008 | 69 | 88 | 0.0 | 0.0 | 0.00 | 0.00 | 0.00 | 99 | 1001.8 |
| 20260906110009 | 70 | 56 | 1.7 | 1.7 | 0.00 | 0.00 | 0.00 | 99 | 1001.7 |
| 20260906104004 | 70 | 81 | 0.0 | 0.0 | 0.00 | 0.00 | 0.00 | 99 | 1001.6 |
| 20260906103025 | 70 | 81 | 0.0 | 0.0 | 0.00 | 0.00 | 0.00 | 99 | 1001.6 |
| 20260906100019 | 70 | 81 | 0.0 | 0.0 | 0.00 | 0.00 | 0.00 | 99 | 1001.2 |
| 20260906095028 | 70 | 82 | 0.0 | 0.0 | 0.00 | 0.00 | 0.00 | 99 | 1001.2 |
| 20260906094010 | 70 | 81 | 0.0 | 0.0 | 0.00 | 0.00 | 0.00 | 99 | 1001.1 |
| 20260906093037 | 70 | 81 | 0.0 | 0.0 | 0.00 | 0.00 | 0.00 | 99 | 1001.0 |
| 20260906092018 | 70 | 79 | 0.0 | 0.0 | 0.00 | 0.00 | 0.00 | 99 | 1001.0 |
| 20260906091034 | 70 | 81 | 0.0 | 0.0 | 0.00 | 0.00 | 0.00 | 99 | 1001.2 |
| 20260906090028 | 71 | 92 | 0.0 | 0.0 | 0.00 | 0.00 | 0.00 | 99 | 1001.2 |
| 20260906085041 | 71 | 98 | 0.0 | 0.0 | 0.00 | 0.00 | 0.00 | 99 | 1001.2 |
| 20260906084047 | 71 | 109 | 0.9 | 1.7 | 0.00 | 0.00 | 0.00 | 99 | 1001.2 |
| 20260906083029 | 71 | 108 | 0.0 | 0.0 | 0.00 | 0.00 | 0.00 | 99 | 1001.3 |
| 20260906082026 | 71 | 109 | 0.0 | 0.0 | 0.00 | 0.00 | 0.00 | 99 | 1001.2 |
| 20260906080038 | 71 | 95 | 0.0 | 0.0 | 0.00 | 0.00 | 0.00 | 99 | 1001.1 |
| 20260906075004 | 71 | 78 | 0.0 | 0.0 | 0.00 | 0.00 | 0.00 | 99 | 1001.0 |
| 20260906073021 | 70 | 72 | 0.0 | 0.0 | 0.00 | 0.00 | 0.00 | 99 | 1000.9 |
| 20260906072037 | 70 | 72 | 0.0 | 0.0 | 0.00 | 0.00 | 0.00 | 99 | 1000.8 |
| 20260906071039 | 70 | 72 | 0.0 | 0.0 | 0.00 | 0.00 | 0.00 | 99 | 1000.8 |
| 20260906064006 | 70 | 72 | 0.0 | 0.0 | 0.00 | 0.00 | 0.00 | 99 | 1001.0 |
| 20260906063009 | 71 | 73 | 0.0 | 0.0 | 0.00 | 0.00 | 0.00 | 99 | 1001.1 |
| 20260906062019 | 71 | 83 | 0.0 | 0.0 | 0.00 | 0.00 | 0.00 | 99 | 1001.1 |
| 20260906061016 | 71 | 94 | 0.0 | 0.0 | 0.00 | 0.00 | 0.00 | 99 | 1001.2 |
| 20260906060043 | 71 | 81 | 0.0 | 0.0 | 0.00 | 0.00 | 0.00 | 99 | 1001.0 |
| 20260906055041 | 70 | 74 | 0.0 | 0.0 | 0.00 | 0.00 | 0.00 | 99 | 1001.4 |
| 20260906054022 | 70 | 79 | 0.0 | 0.0 | 0.00 | 0.00 | 0.00 | 99 | 1001.3 |
| 20260906053038 | 71 | 60 | 0.9 | 1.7 | 0.00 | 0.00 | 0.00 | 99 | 1001.2 |
| 20260906052023 | 71 | 60 | 0.0 | 0.0 | 0.00 | 0.00 | 0.00 | 99 | 1001.4 |
| 20260906051018 | 71 | 60 | 0.0 | 0.0 | 0.00 | 0.00 | 0.00 | 99 | 1001.0 |
| 20260906050006 | 71 | 60 | 0.0 | 0.0 | 0.00 | 0.00 | 0.00 | 99 | 1001.1 |
| 20260906045013 | 71 | 60 | 0.0 | 0.0 | 0.00 | 0.00 | 0.00 | 99 | 1001.4 |
| 20260906043036 | 72 | 60 | 0.0 | 0.0 | 0.00 | 0.00 | 0.00 | 99 | 1001.1 |
| 20260906042006 | 72 | 60 | 0.0 | 0.0 | 0.00 | 0.00 | 0.00 | 99 | 1001.1 |
| 20260906041018 | 72 | 75 | 0.0 | 0.0 | 0.00 | 0.00 | 0.00 | 99 | 1001.1 |
| 20260906040022 | 72 | 75 | 0.0 | 0.0 | 0.00 | 0.00 | 0.01 | 99 | 1000.9 |
| 20260906035017 | 72 | 69 | 0.0 | 0.0 | 0.00 | 0.00 | 0.01 | 99 | 1001.0 |
| 20260906034014 | 72 | 77 | 0.0 | 0.0 | 0.00 | 0.00 | 0.01 | 99 | 1001.0 |
| 20260906033030 | 72 | 81 | 0.0 | 0.0 | 0.00 | 0.00 | 0.01 | 99 | 1001.1 |
| 20260906032004 | 72 | 83 | 0.0 | 0.0 | 0.00 | 0.00 | 0.01 | 99 | 1001.2 |
| 20260906031022 | 73 | 86 | 0.0 | 0.0 | 0.00 | 0.00 | 0.01 | 99 | 1001.5 |
| 20260906030005 | 73 | 83 | 0.0 | 0.0 | 0.00 | 0.00 | 0.01 | 99 | 1001.4 |
| 20260906025029 | 73 | 60 | 0.0 | 0.0 | 0.00 | 0.00 | 0.01 | 99 | 1001.6 |
| 20260906024023 | 73 | 71 | 0.0 | 0.0 | 0.00 | 0.00 | 0.01 | 99 | 1001.6 |
| 20260906023012 | 73 | 73 | 0.0 | 0.0 | 0.00 | 0.00 | 0.01 | 99 | 1001.7 |
| 20260906022036 | 73 | 73 | 0.0 | 0.0 | 0.00 | 0.00 | 0.01 | 99 | 1001.9 |
| 20260906021026 | 73 | 74 | 0.0 | 0.0 | 0.00 | 0.00 | 0.01 | 99 | 1001.6 |
| 20260906020045 | 73 | 74 | 0.0 | 0.0 | 0.00 | 0.00 | 0.01 | 99 | 1001.3 |
| 20260906015012 | 73 | 74 | 0.0 | 0.0 | 0.00 | 0.00 | 0.01 | 99 | 1001.4 |
| 20260906014042 | 74 | 64 | 0.0 | 0.0 | 0.00 | 0.00 | 0.01 | 99 | 1001.3 |
| 20260906013045 | 74 | 64 | 0.0 | 0.0 | 0.00 | 0.00 | 0.01 | 99 | 1000.8 |
| 20260906012036 | 74 | 64 | 0.0 | 0.0 | 0.00 | 0.00 | 0.01 | 98 | 1000.6 |
| 20260906011040 | 74 | 64 | 0.0 | 0.0 | 0.00 | 0.00 | 0.01 | 97 | 1000.7 |
| 20260906010032 | 74 | 64 | 0.0 | 0.0 | 0.00 | 0.00 | 0.01 | 96 | 1000.4 |
| 20260906005034 | 75 | 64 | 0.0 | 0.0 | 0.00 | 0.00 | 0.01 | 95 | 1000.6 |
| 20260906004007 | 75 | 65 | 0.0 | 0.0 | 0.00 | 0.00 | 0.01 | 94 | 1000.5 |
| 20260906003007 | 75 | 64 | 0.0 | 0.0 | 0.00 | 0.00 | 0.01 | 92 | 1000.5 |
| 20260906002019 | 76 | 64 | 0.0 | 0.0 | 0.00 | 0.00 | 0.01 | 92 | 1000.4 |
| 20260906001045 | 76 | 65 | 0.0 | 0.0 | 0.00 | 0.00 | 0.01 | 90 | 1000.4 |
| 20260906000009 | 77 | 65 | 0.0 | 0.0 | 0.00 | 0.00 | 0.01 | 88 | 1000.4 |
| 20260905235016 | 78 | 65 | 0.0 | 0.0 | 0.00 | 0.00 | 0.01 | 86 | 1000.9 |
| 20260905234043 | 78 | 65 | 0.0 | 0.0 | 0.00 | 0.00 | 0.01 | 85 | 1000.8 |
| 20260905233025 | 79 | 64 | 0.0 | 0.0 | 0.00 | 0.00 | 0.01 | 84 | 1000.7 |
| 20260905231017 | 80 | 39 | 0.0 | 0.0 | 0.00 | 0.00 | 0.01 | 84 | 1001.0 |
| 20260905225013 | 80 | 81 | 0.0 | 0.0 | 0.00 | 0.00 | 0.01 | 83 | 1000.9 |
| 20260905224011 | 80 | 81 | 0.0 | 0.0 | 0.00 | 0.00 | 0.01 | 82 | 1000.9 |
| 20260905223045 | 80 | 62 | 1.7 | 1.7 | 0.00 | 0.00 | 0.01 | 81 | 1000.9 |
| 20260905222011 | 80 | 115 | 0.0 | 0.0 | 0.00 | 0.00 | 0.01 | 80 | 1000.7 |
| 20260905221015 | 81 | 95 | 0.9 | 1.7 | 0.00 | 0.00 | 0.01 | 79 | 1000.8 |
| 20260905215001 | 82 | 73 | 0.0 | 0.0 | 0.00 | 0.00 | 0.01 | 79 | 1000.7 |
| 20260905210040 | 86 | 61 | 0.9 | 1.7 | 0.00 | 0.00 | 0.01 | 72 | 1000.3 |
| 20260905205018 | 86 | 54 | 1.7 | 2.6 | 0.00 | 0.00 | 0.01 | 74 | 1000.2 |
| 20260905204016 | 84 | 253 | 3.5 | 4.3 | 0.00 | 0.00 | 0.01 | 74 | 1000.4 |
| 20260905203006 | 84 | 75 | 0.0 | 0.0 | 0.00 | 0.00 | 0.01 | 76 | 1000.3 |
| 20260905201015 | 85 | 65 | 0.9 | 1.7 | 0.00 | 0.00 | 0.01 | 72 | 1000.4 |
| 20260905200008 | 86 | 95 | 0.0 | 0.0 | 0.00 | 0.00 | 0.01 | 70 | 1000.6 |
| 20260905195005 | 85 | 105 | 0.0 | 0.0 | 0.00 | 0.00 | 0.01 | 70 | 1000.7 |
| 20260905194031 | 86 | 69 | 0.0 | 0.0 | 0.00 | 0.00 | 0.01 | 68 | 1000.6 |
| 20260905193024 | 86 | 47 | 0.9 | 1.7 | 0.00 | 0.00 | 0.01 | 70 | 1000.8 |
| 20260905192040 | 86 | 67 | 0.9 | 1.7 | 0.00 | 0.00 | 0.01 | 72 | 1001.1 |
| 20260905190020 | 87 | 84 | 0.0 | 0.0 | 0.00 | 0.00 | 0.01 | 67 | 1001.3 |
| 20260905185018 | 87 | 97 | 0.9 | 1.7 | 0.00 | 0.00 | 0.01 | 69 | 1001.3 |
| 20260905184026 | 86 | 70 | 0.9 | 1.7 | 0.00 | 0.00 | 0.01 | 74 | 1001.7 |
| 20260905183025 | 84 | 105 | 0.0 | 0.0 | 0.00 | 0.00 | 0.01 | 76 | 1001.7 |
| 20260905181041 | 84 | 128 | 1.7 | 2.6 | 0.00 | 0.00 | 0.01 | 73 | 1002.0 |
| 20260905180029 | 84 | 124 | 2.6 | 3.5 | 0.00 | 0.00 | 0.01 | 74 | 1002.1 |
| 20260905175039 | 81 | 104 | 0.0 | 0.0 | 0.00 | 0.00 | 0.01 | 78 | 1002.3 |
| 20260905174027 | 82 | 198 | 1.7 | 2.6 | 0.00 | 0.00 | 0.01 | 76 | 1002.1 |
| 20260905173043 | 81 | 184 | 1.7 | 2.6 | 0.00 | 0.00 | 0.01 | 78 | 1002.3 |
| 20260905172028 | 80 | 78 | 1.7 | 2.6 | 0.00 | 0.00 | 0.01 | 82 | 1002.3 |
| 20260905171008 | 79 | 86 | 0.0 | 0.0 | 0.00 | 0.00 | 0.01 | 85 | 1002.4 |
| 20260905170011 | 79 | 88 | 0.0 | 0.0 | 0.00 | 0.00 | 0.01 | 85 | 1002.4 |
| 20260905165026 | 79 | 127 | 1.7 | 2.6 | 0.00 | 0.00 | 0.01 | 83 | 1002.6 |
| 20260905161032 | 77 | 116 | 0.9 | 1.7 | 0.00 | 0.00 | 0.01 | 90 | 1003.3 |
| 20260905155038 | 76 | 101 | 0.0 | 0.0 | 0.00 | 0.00 | 0.01 | 94 | 1003.0 |
| 20260905154015 | 76 | 99 | 0.0 | 0.0 | 0.00 | 0.00 | 0.01 | 93 | 1002.7 |
| 20260905153024 | 76 | 74 | 0.0 | 0.0 | 0.00 | 0.00 | 0.01 | 94 | 1003.3 |
| 20260905152012 | 76 | 106 | 0.9 | 1.7 | 0.00 | 0.00 | 0.01 | 93 | 1002.7 |
| 20260905151018 | 76 | 130 | 0.9 | 1.7 | 0.00 | 0.00 | 0.01 | 91 | 1002.3 |
| 20260905150029 | 76 | 121 | 1.7 | 2.6 | 0.00 | 0.00 | 0.01 | 93 | 1001.9 |
| 20260905145018 | 75 | 112 | 0.9 | 1.7 | 0.00 | 0.00 | 0.01 | 94 | 1002.2 |
| 20260905144021 | 73 | 115 | 0.9 | 1.7 | 0.00 | 0.00 | 0.01 | 98 | 1002.0 |
| 20260905143038 | 73 | 81 | 0.0 | 0.0 | 0.00 | 0.00 | 0.01 | 99 | 1002.5 |
| 20260905142014 | 73 | 110 | 0.0 | 0.0 | 0.00 | 0.00 | 0.01 | 99 | 1002.8 |
| 20260905141032 | 73 | 174 | 0.9 | 1.7 | 0.00 | 0.00 | 0.01 | 99 | 1003.3 |
| 20260905135039 | 72 | 101 | 0.9 | 1.7 | 0.00 | 0.00 | 0.01 | 99 | 1003.6 |
| 20260905134011 | 71 | 81 | 0.0 | 0.0 | 0.00 | 0.00 | 0.01 | 99 | 1003.7 |
| 20260905133003 | 71 | 90 | 0.0 | 0.0 | 0.05 | 0.00 | 0.01 | 99 | 1003.7 |
| 20260905132034 | 71 | 122 | 0.0 | 0.0 | 0.00 | 0.00 | 0.00 | 99 | 1004.0 |
| 20260905131017 | 72 | 109 | 0.9 | 1.7 | 0.00 | 0.00 | 0.00 | 99 | 1004.2 |
| 20260905130015 | 71 | 88 | 0.0 | 0.0 | 0.00 | 0.00 | 0.00 | 99 | 1003.8 |
| 20260905125004 | 71 | 87 | 0.0 | 0.0 | 0.00 | 0.00 | 0.00 | 99 | 1003.7 |
| 20260905124038 | 71 | 103 | 0.0 | 0.0 | 0.00 | 0.00 | 0.00 | 99 | 1004.2 |
| 20260905123004 | 72 | 117 | 1.7 | 1.7 | 0.00 | 0.00 | 0.00 | 99 | 1003.8 |
| 20260905122043 | 72 | 122 | 0.9 | 1.7 | 0.00 | 0.00 | 0.00 | 99 | 1004.1 |
| 20260905121007 | 72 | 85 | 0.0 | 0.0 | 0.00 | 0.00 | 0.00 | 99 | 1003.0 |
| 20260905120022 | 72 | 84 | 0.0 | 0.0 | 0.00 | 0.00 | 0.00 | 99 | 1002.5 |
| 20260905115020 | 72 | 54 | 0.9 | 1.7 | 0.00 | 0.00 | 0.00 | 99 | 1002.4 |
| 20260905113014 | 71 | 89 | 0.0 | 0.0 | 0.00 | 0.00 | 0.00 | 99 | 1001.2 |
| 20260905112034 | 71 | 93 | 0.0 | 0.0 | 0.00 | 0.00 | 0.00 | 99 | 1001.4 |